Latest Weather Observations for Bourke

IDN60801

Issued at 11:03 pm EST Tuesday 19 September 2017 (issued every 30 minutes, with the page automatically refreshed every 10 minutes)

About weather observations | Map of weather stations | Latest weather observations for NSW | Other Formats
Station Details ID: 048245 Name: BOURKE AIRPORT AWS Lat: -30.04 Lon: 145.95 Height: 107.3 m
Data from the previous 72 hours. | See also: Recent months at Bourke
Date/Time
EST
Temp
°C
App
Temp
°C
Dew
Point
°C
Rel
Hum
%
Delta-T
°C
Wind Press
QNH
hPa
Press
MSL
hPa
Rain since
9am
mm
Dir  Spd
km/h
Gust
km/h
Spd
kts
Gust
kts
19/11:00pm 10.0 6.0 -5.5 33 5.5 WSW 7 9 4 5 1021.1 1020.9 0.0
19/10:30pm 10.1 5.9 -8.0 27 6.0 WSW 7 9 4 5 1021.2 1021.0 0.0
19/10:00pm 11.9 7.8 -7.0 26 6.6 WSW 7 9 4 5 1021.4 1021.2 0.0
19/09:30pm 15.0 10.8 -4.3 26 7.5 SSW 9 13 5 7 1021.3 1021.1 0.0
19/09:00pm 16.3 11.7 -3.7 25 7.9 S 11 15 6 8 1021.2 1021.0 0.0
19/08:30pm 15.3 10.6 -5.1 24 7.8 SSW 11 13 6 7 1021.1 1020.9 0.0
19/08:00pm 15.3 10.9 -5.7 23 7.9 SSW 9 11 5 6 1020.9 1020.7 0.0
19/07:30pm 16.8 12.4 -5.6 21 8.6 WSW 9 11 5 6 1020.7 1020.5 0.0
19/07:00pm 18.1 13.8 -5.2 20 9.1 WSW 9 11 5 6 1020.4 1020.2 0.0
19/06:30pm 19.3 15.0 -4.9 19 9.7 WSW 9 11 5 6 1019.9 1019.7 0.0
19/06:00pm 20.9 16.6 -5.0 17 10.5 WSW 9 17 5 9 1019.7 1019.5 0.0
19/05:30pm 21.9 17.1 -5.9 15 11.2 SW 11 22 6 12 1019.4 1019.2 0.0
19/05:00pm 22.5 17.8 -5.4 15 11.4 SW 11 17 6 9 1019.1 1019.0 0.0
19/04:30pm 22.7 18.0 -5.2 15 11.5 WSW 11 17 6 9 1018.8 1018.7 0.0
19/04:00pm 23.3 19.0 -4.8 15 11.7 SE 9 35 5 19 1018.7 1018.6 0.0
19/03:30pm 22.4 18.0 -5.5 15 11.4 SSW 9 17 5 9 1019.0 1018.9 0.0
19/03:00pm 22.4 17.3 -5.5 15 11.3 SSW 13 26 7 14 1019.4 1019.2 0.0
19/02:30pm 21.4 16.3 -5.4 16 10.8 S 13 20 7 11 1019.7 1019.5 0.0
19/02:00pm 22.2 16.0 -4.8 16 11.1 SSW 19 26 10 14 1020.0 1019.8 0.0
19/01:30pm 21.0 15.2 -4.9 17 10.5 SW 17 28 9 15 1020.6 1020.4 0.0
19/01:00pm 21.4 16.4 -4.6 17 10.6 SW 13 20 7 11 1020.8 1020.6 0.0
19/12:30pm 20.7 14.6 -3.7 19 10.1 SW 19 30 10 16 1021.2 1021.0 0.0
19/12:00pm 20.7 15.1 -3.0 20 9.9 S 17 28 9 15 1021.4 1021.2 0.0
19/11:30am 20.1 14.2 -2.3 22 9.5 S 19 30 10 16 1021.8 1021.6 0.0
19/11:00am 19.5 13.3 -3.4 21 9.4 SSW 20 30 11 16 1022.2 1022.0 0.0
19/10:30am 18.4 11.7 -1.4 26 8.4 SSW 24 33 13 18 1022.5 1022.3 0.0
19/10:00am 18.1 12.1 3.6 38 6.8 S 24 35 13 19 1022.5 1022.3 0.0
19/09:30am 17.7 11.9 4.6 42 6.3 SSW 24 32 13 17 1022.5 1022.3 0.0
19/09:00am 17.4 11.3 5.0 44 5.9 S 26 33 14 18 1022.4 1022.2 0.0
19/08:30am 17.3 11.5 6.2 48 5.5 SSW 26 35 14 19 1021.9 1021.7 0.0
19/08:00am 16.6 10.4 6.1 50 5.1 SSW 28 39 15 21 1021.6 1021.4 0.0
19/07:30am 16.6 11.8 7.3 54 4.7 S 22 28 12 15 1021.0 1020.8 0.0
19/07:00am 15.7 11.3 6.7 55 4.4 SSW 19 26 10 14 1020.4 1020.2 0.0
19/06:30am 15.3 11.7 6.6 56 4.3 SSW 15 17 8 9 1019.6 1019.4 0.0
19/06:00am 15.6 11.5 6.1 53 4.6 SSW 17 20 9 11 1018.9 1018.8 0.0
19/05:30am 15.2 11.9 4.3 48 5.1 SSW 11 15 6 8 1018.3 1018.2 0.0
19/05:00am 15.8 11.9 3.6 44 5.6 SW 13 17 7 9 1017.7 1017.5 0.0
19/04:30am 16.6 11.9 3.0 40 6.2 SSW 17 20 9 11 1017.1 1016.9 0.0
19/04:00am 17.3 11.7 1.3 34 7.1 SW 20 28 11 15 1016.6 1016.4 0.0
19/03:30am 16.6 10.9 -3.5 25 8.0 SW 17 26 9 14 1016.1 1015.9 0.0
19/03:00am 17.2 11.0 -5.3 21 8.7 WSW 19 26 10 14 1015.8 1015.6 0.0
19/02:30am 18.0 10.8 -9.0 15 9.8 W 22 44 12 24 1015.6 1015.4 0.0
19/02:00am 17.0 11.5 -9.8 15 9.4 NW 13 15 7 8 1015.0 1014.8 0.0
19/01:30am 17.6 12.1 -9.3 15 9.6 NW 13 17 7 9 1015.1 1014.9 0.0
19/01:00am 16.7 11.7 -8.4 17 9.0 NW 11 15 6 8 1015.4 1015.2 0.0
19/12:30am 16.1 11.1 -8.2 18 8.7 NW 11 11 6 6 1015.6 1015.4 0.0
19/12:00am 13.8 8.8 -8.1 21 7.7 NNW 11 13 6 7 1015.8 1015.6 0.0
 
Date/Time
EST
Temp
°C
App
Temp
°C
Dew
Point
°C
Rel
Hum
%
Delta-T
°C
Wind Press
QNH
hPa
Press
MSL
hPa
Rain since
9am
mm
Dir  Spd
km/h
Gust
km/h
Spd
kts
Gust
kts
18/11:30pm 12.0 7.3 -9.6 21 7.2 NNW 9 11 5 6 1016.1 1015.9 0.0
18/11:00pm 12.4 7.6 -10.5 19 7.5 N 9 11 5 6 1016.0 1015.8 0.0
18/10:30pm 13.3 9.1 -10.5 18 7.9 N 6 7 3 4 1016.2 1016.0 0.0
18/10:00pm 15.2 11.1 -8.9 18 8.4 N 6 7 3 4 1016.5 1016.3 0.0
18/09:30pm 15.7 10.9 -10.0 16 8.9 NE 9 11 5 6 1016.4 1016.2 0.0
18/09:00pm 16.2 11.5 -8.8 17 8.9 NE 9 11 5 6 1016.4 1016.2 0.0
18/08:30pm 16.1 13.0 -10.5 15 9.1 CALM 0 0 0 0 1016.4 1016.2 0.0
18/08:00pm 18.0 15.0 -9.9 14 9.9 CALM 0 0 0 0 1016.2 1016.0 0.0
18/07:30pm 20.1 16.0 -9.1 13 10.8 WNW 6 7 3 4 1016.1 1015.9 0.0
18/07:00pm 24.3 19.8 -6.9 12 12.6 WNW 9 11 5 6 1015.8 1015.6 0.0
18/06:30pm 25.6 21.1 -7.0 11 13.3 WNW 9 11 5 6 1015.6 1015.4 0.0
18/06:00pm 28.1 23.5 -7.7 9 14.7 WNW 9 13 5 7 1015.6 1015.4 0.0
18/05:30pm 29.5 23.1 -6.7 9 15.4 WNW 19 28 10 15 1015.4 1015.2 0.0
18/05:00pm 30.5 24.9 -5.9 9 15.8 NW 15 22 8 12 1015.4 1015.2 0.0
18/04:30pm 30.4 24.1 -6.0 9 15.8 WNW 19 32 10 17 1015.5 1015.3 0.0
18/04:00pm 30.8 24.5 -5.7 9 15.9 NNW 19 28 10 15 1015.5 1015.3 0.0
18/03:30pm 30.9 25.0 -5.6 9 16.0 NW 17 28 9 15 1015.7 1015.5 0.0
18/03:00pm 30.9 24.2 -4.2 10 15.7 NNW 22 35 12 19 1016.0 1015.8 0.0
18/02:30pm 30.1 23.3 -4.8 10 15.4 NNW 22 35 12 19 1016.8 1016.6 0.0
18/02:00pm 29.9 23.3 -3.7 11 15.1 NNW 22 41 12 22 1017.4 1017.2 0.0
18/01:30pm 29.9 23.3 -3.7 11 15.1 NNW 22 32 12 17 1017.9 1017.7 0.0
18/01:00pm 29.3 23.7 -3.0 12 14.6 N 17 28 9 15 1018.5 1018.4 0.0
18/12:30pm 28.2 22.5 -3.9 12 14.2 N 17 30 9 16 1019.1 1019.0 0.0
18/12:00pm 27.8 21.6 -3.1 13 13.8 NNE 20 32 11 17 1019.9 1019.7 0.0
18/11:30am 27.6 21.1 -2.3 14 13.5 NNE 22 33 12 18 1020.6 1020.4 0.0
18/11:00am 26.5 20.3 -3.1 14 13.0 NNE 20 28 11 15 1021.1 1020.9 0.0
18/10:30am 24.9 18.8 -3.5 15 12.3 NNE 19 30 10 16 1021.8 1021.6 0.0
18/10:00am 23.3 16.3 -3.9 16 11.5 NE 24 32 13 17 1022.3 1022.1 0.0
18/09:30am 21.6 15.2 -5.3 16 10.9 ENE 20 28 11 15 1022.8 1022.6 0.0
18/09:00am 20.2 12.6 -5.6 17 10.2 NE 26 33 14 18 1023.0 1022.8 0.0
18/08:30am 18.3 12.3 -6.4 18 9.5 NE 17 20 9 11 1023.1 1022.9 0.0
18/08:00am 15.8 9.4 -6.5 21 8.3 NE 19 26 10 14 1023.1 1022.9 0.0
18/07:30am 12.7 7.4 -6.8 25 6.9 NE 13 17 7 9 1022.9 1022.7 0.0
18/07:00am 9.2 4.7 -6.6 32 5.4 NE 9 15 5 8 1022.6 1022.4 0.0
18/06:30am 5.5 0.4 -9.1 34 4.5 NE 11 11 6 6 1022.4 1022.2 0.0
18/06:00am 6.5 1.5 -8.6 33 4.7 ENE 11 13 6 7 1022.1 1021.9 0.0
18/05:30am 7.3 3.1 -7.9 33 4.9 E 7 9 4 5 1021.9 1021.7 0.0
18/05:00am 7.1 2.1 -8.5 32 4.9 ENE 11 11 6 6 1021.9 1021.7 0.0
18/04:30am 8.4 3.4 -8.1 30 5.4 E 11 13 6 7 1021.6 1021.4 0.0
18/04:00am 9.5 4.2 -7.6 29 5.7 E 13 15 7 8 1021.5 1021.3 0.0
18/03:30am 9.7 4.8 -7.0 30 5.7 E 11 15 6 8 1021.7 1021.5 0.0
18/03:00am 7.2 2.7 -7.2 35 4.7 E 9 9 5 5 1022.0 1021.8 0.0
18/02:30am 7.1 2.5 -8.1 33 4.9 ENE 9 11 5 6 1022.2 1022.0 0.0
18/02:00am 6.7 2.0 -8.8 32 4.8 ENE 9 13 5 7 1022.5 1022.3 0.0
18/01:30am 7.5 3.5 -5.2 40 4.4 ESE 7 9 4 5 1022.6 1022.4 0.0
18/01:00am 7.1 3.1 -5.9 39 4.4 ESE 7 9 4 5 1022.8 1022.6 0.0
18/12:30am 7.3 3.1 -7.5 34 4.8 SE 7 9 4 5 1023.0 1022.8 0.0
18/12:00am 7.6 3.8 -5.8 38 4.6 SE 6 7 3 4 1023.3 1023.1 0.0
 
Date/Time
EST
Temp
°C
App
Temp
°C
Dew
Point
°C
Rel
Hum
%
Delta-T
°C
Wind Press
QNH
hPa
Press
MSL
hPa
Rain since
9am
mm
Dir  Spd
km/h
Gust
km/h
Spd
kts
Gust
kts
17/11:30pm 8.2 4.5 -4.2 41 4.4 E 6 7 3 4 1023.3 1023.1 0.0
17/11:00pm 8.7 4.6 -6.3 34 5.1 SSE 7 7 4 4 1023.3 1023.1 0.0
17/10:30pm 8.8 5.4 -5.1 37 4.9 SE 4 9 2 5 1023.6 1023.4 0.0
17/10:00pm 9.5 5.7 -5.6 34 5.3 E 6 7 3 4 1023.7 1023.5 0.0
17/09:30pm 9.1 4.8 -8.9 27 5.8 E 7 7 4 4 1023.7 1023.5 0.0
17/09:00pm 10.2 6.1 -8.9 25 6.2 SE 6 6 3 3 1023.7 1023.5 0.0
17/08:30pm 11.3 8.0 -8.5 24 6.7 S 2 6 1 3 1023.6 1023.4 0.0
17/08:00pm 12.6 9.7 -8.5 22 7.2 CALM 0 0 0 0 1023.4 1023.2 0.0
17/07:30pm 13.6 9.8 -9.6 19 7.8 SSW 4 6 2 3 1023.2 1023.0 0.0
17/07:00pm 15.4 11.4 -8.1 19 8.4 S 6 7 3 4 1023.0 1022.8 0.0
17/06:30pm 17.9 15.1 -6.7 18 9.3 CALM 0 0 0 0 1022.8 1022.6 0.0
17/06:00pm 20.8 18.0 -6.7 15 10.7 CALM 0 0 0 0 1022.6 1022.4 0.0
17/05:30pm 21.7 17.8 -6.9 14 11.2 S 6 11 3 6 1022.5 1022.3 0.0
17/05:00pm 22.0 17.9 -6.7 14 11.3 SSW 7 13 4 7 1022.3 1022.1 0.0
17/04:30pm 22.0 17.2 -5.8 15 11.2 SSW 11 17 6 9 1022.2 1022.0 0.0
17/04:00pm 22.6 18.3 -5.3 15 11.4 ENE 9 13 5 7 1022.1 1021.9 0.0
17/03:30pm 21.8 17.0 -5.9 15 11.1 SSE 11 17 6 9 1022.4 1022.2 0.0
17/03:00pm 22.1 18.3 -4.1 17 10.9 SSE 7 13 4 7 1022.6 1022.4 0.0
17/02:30pm 22.0 16.9 -4.9 16 11.0 NW 13 26 7 14 1022.8 1022.6 0.0
17/02:00pm 21.7 17.8 -4.4 17 10.7 W 7 15 4 8 1023.3 1023.1 0.0
17/01:30pm 21.1 16.9 -4.1 18 10.4 S 9 17 5 9 1023.7 1023.5 0.0
17/01:00pm 20.7 15.8 -3.0 20 9.9 SE 13 20 7 11 1024.3 1024.1 0.0
17/12:30pm 20.4 16.7 -2.6 21 9.7 NNW 7 15 4 8 1024.9 1024.7 0.0
17/12:00pm 19.7 15.7 -2.6 22 9.3 SSW 9 13 5 7 1025.4 1025.2 0.0
17/11:30am 19.2 15.3 -1.8 24 8.9 N 9 13 5 7 1025.6 1025.4 0.0
17/11:00am 18.6 14.7 -1.8 25 8.6 SE 9 13 5 7 1026.1 1026.0 0.0
17/10:30am 17.4 13.5 -1.8 27 8.0 ESE 9 17 5 9 1026.5 1026.4 0.0
17/10:00am 16.8 12.1 -1.8 28 7.7 E 13 20 7 11 1026.8 1026.7 0.0
17/09:30am 16.4 11.4 -1.2 30 7.4 E 15 22 8 12 1026.9 1026.8 0.0
17/09:00am 14.3 9.6 -1.7 33 6.5 E 13 20 7 11 1026.8 1026.7 0.0
17/08:30am 13.2 7.3 -1.9 35 6.0 SE 19 24 10 13 1026.7 1026.6 0.0
17/08:00am 12.3 6.9 -1.6 38 5.5 SE 17 20 9 11 1026.7 1026.6 0.0
17/07:30am 10.5 5.0 -2.2 41 4.9 SSE 17 22 9 12 1026.6 1026.5 0.0
17/07:00am 9.9 4.8 -1.8 44 4.5 SSE 15 19 8 10 1026.2 1026.1 0.0
17/06:30am 8.4 4.1 -2.0 48 3.9 S 11 15 6 8 1025.8 1025.6 0.0
17/06:00am 7.7 3.7 -2.3 49 3.7 SSE 9 13 5 7 1025.5 1025.3 0.0
17/05:30am 8.4 4.1 -2.0 48 3.9 SSE 11 13 6 7 1025.3 1025.1 0.0
17/05:00am 8.8 5.0 -1.0 50 3.8 SSE 9 11 5 6 1024.8 1024.6 0.0
17/04:30am 9.6 5.3 -1.4 46 4.3 SSE 11 11 6 6 1024.6 1024.4 0.0
17/04:00am 10.1 5.8 -1.6 44 4.5 SE 11 15 6 8 1024.3 1024.1 0.0
17/03:30am 10.2 5.9 -1.5 44 4.6 SE 11 13 6 7 1024.3 1024.1 0.0
17/03:00am 10.2 5.9 -1.5 44 4.5 SE 11 13 6 7 1024.4 1024.2 0.0
17/02:30am 10.9 6.5 -2.1 40 5.1 SSE 11 13 6 7 1024.7 1024.5 0.0
17/02:00am 11.9 7.1 -2.3 37 5.5 SSE 13 17 7 9 1025.0 1024.8 0.0
17/01:30am 12.8 7.7 -1.9 36 5.9 S 15 20 8 11 1025.0 1024.8 0.0
17/01:00am 13.6 8.2 -1.6 35 6.1 S 17 20 9 11 1024.9 1024.7 0.0
17/12:30am 13.8 8.8 -1.0 36 6.1 S 15 19 8 10 1025.0 1024.8 0.0
17/12:00am 14.3 9.7 -0.9 35 6.2 SSW 13 19 7 10 1024.7 1024.5 0.0
 
Date/Time
EST
Temp
°C
App
Temp
°C
Dew
Point
°C
Rel
Hum
%
Delta-T
°C
Wind Press
QNH
hPa
Press
MSL
hPa
Rain since
9am
mm
Dir  Spd
km/h
Gust
km/h
Spd
kts
Gust
kts
16/11:30pm 15.4 10.1 -0.8 33 6.8 S 17 24 9 13 1024.5 1024.3 0.0

Other Formats:

Comma delimited format used in spreadsheet applications
http://www.bom.gov.au/fwo/IDN60801/IDN60801.94703.axf

JavaScript Object Notation format (JSON) in row-major order
http://www.bom.gov.au/fwo/IDN60801/IDN60801.94703.json